createdAt,value
2023-03-26T00:00:12.693Z,99462.78
2023-03-26T00:03:00.506Z,99460.14
2023-03-26T00:05:28.754Z,99460.48
2023-03-26T00:07:56.973Z,99463.42
2023-03-26T00:10:25.577Z,99458.12
2023-03-26T00:12:53.552Z,99456.34
2023-03-26T00:15:21.590Z,99457.15
2023-03-26T00:17:49.522Z,99463.23
2023-03-26T00:20:17.948Z,99465.57
2023-03-26T00:22:46.080Z,99465.56
2023-03-26T00:25:14.686Z,99473.14
2023-03-26T00:27:45.548Z,99474.25
2023-03-26T00:30:14.216Z,99468.86
2023-03-26T00:32:42.857Z,99468.38
2023-03-26T00:35:11.193Z,99465.16
2023-03-26T00:37:42.435Z,99461.38
2023-03-26T00:40:10.923Z,99463.77
2023-03-26T00:42:39.073Z,99463.05
2023-03-26T00:45:07.591Z,99459.00
2023-03-26T00:47:36.168Z,99460.84
2023-03-26T00:50:04.432Z,99455.45
2023-03-26T00:52:32.386Z,99460.15
2023-03-26T00:55:00.308Z,99457.71
2023-03-26T00:57:35.970Z,99457.33
2023-03-26T01:00:18.638Z,99460.73
2023-03-26T01:02:47.061Z,99454.84
2023-03-26T01:05:36.762Z,99451.05
2023-03-26T01:08:23.596Z,99452.05
2023-03-26T01:10:52.530Z,99454.17
2023-03-26T01:13:21.945Z,99447.02
2023-03-26T01:15:51.277Z,99451.59
2023-03-26T01:18:22.078Z,99452.66
2023-03-26T01:20:51.117Z,99451.73
2023-03-26T01:23:24.664Z,99452.59
2023-03-26T01:25:57.293Z,99452.73
2023-03-26T01:28:27.748Z,99451.48
2023-03-26T01:31:06.325Z,99441.47
2023-03-26T01:33:44.181Z,99441.35
2023-03-26T01:36:21.357Z,99441.30
2023-03-26T01:39:00.561Z,99438.04
2023-03-26T01:41:37.390Z,99432.54
2023-03-26T01:44:14.720Z,99423.31
2023-03-26T01:46:43.806Z,99418.60
2023-03-26T01:49:13.649Z,99422.09
2023-03-26T01:51:42.645Z,99416.41
2023-03-26T01:54:12.499Z,99418.41
2023-03-26T01:57:03.965Z,99422.13
2023-03-26T01:59:43.903Z,99427.71
2023-03-26T02:02:31.071Z,99431.39
2023-03-26T02:05:20.932Z,99433.43
2023-03-26T02:07:56.114Z,99429.30
2023-03-26T02:10:34.350Z,99434.85
2023-03-26T02:13:03.329Z,99431.46
2023-03-26T02:15:31.249Z,99427.20
2023-03-26T02:18:00.062Z,99432.05
2023-03-26T02:20:30.360Z,99434.66
2023-03-26T02:22:58.315Z,99432.31
2023-03-26T02:25:27.078Z,99431.55
2023-03-26T02:27:56.215Z,99431.02
2023-03-26T02:30:25.898Z,99436.08
2023-03-26T02:32:59.343Z,99437.28
2023-03-26T02:35:31.375Z,99435.57
2023-03-26T02:38:01.200Z,99429.66
2023-03-26T02:40:29.283Z,99430.09
2023-03-26T02:42:58.811Z,99429.70
2023-03-26T02:45:27.411Z,99431.44
2023-03-26T02:48:04.705Z,99437.05
2023-03-26T02:50:54.705Z,99436.27
2023-03-26T02:53:24.290Z,99439.55
2023-03-26T02:55:57.596Z,99442.74
2023-03-26T02:58:30.176Z,99444.74
2023-03-26T03:00:58.776Z,99443.70
2023-03-26T03:03:37.982Z,99445.71
2023-03-26T03:06:47.420Z,99448.19
2023-03-26T03:09:15.696Z,99450.39
2023-03-26T03:11:46.575Z,99450.34
2023-03-26T03:14:14.607Z,99458.14
2023-03-26T03:16:43.111Z,99461.04
2023-03-26T03:19:12.386Z,99463.95
2023-03-26T03:21:41.385Z,99468.41
2023-03-26T03:24:09.846Z,99469.56
2023-03-26T03:26:42.537Z,99468.81
2023-03-26T03:29:24.479Z,99471.89
2023-03-26T03:31:52.780Z,99474.07
2023-03-26T03:34:38.885Z,99476.85
2023-03-26T03:37:07.284Z,99480.23
2023-03-26T03:39:47.106Z,99485.63
2023-03-26T03:42:18.680Z,99492.58
2023-03-26T03:44:57.772Z,99496.79
2023-03-26T03:47:46.148Z,99493.15
2023-03-26T03:50:15.524Z,99493.88
2023-03-26T03:52:53.475Z,99493.18
2023-03-26T03:55:24.205Z,99492.19
2023-03-26T03:57:54.950Z,99486.11
2023-03-26T04:00:25.076Z,99491.19
2023-03-26T04:03:06.528Z,99490.64
2023-03-26T04:05:35.017Z,99491.79
2023-03-26T04:08:03.176Z,99494.38
2023-03-26T04:10:52.942Z,99496.58
2023-03-26T04:13:39.664Z,99494.02
2023-03-26T04:16:26.035Z,99493.84
2023-03-26T04:18:54.208Z,99494.89
2023-03-26T04:21:22.232Z,99490.39
2023-03-26T04:23:50.197Z,99485.39
2023-03-26T04:26:31.612Z,99482.34
2023-03-26T04:29:06.393Z,99477.67
2023-03-26T04:31:36.417Z,99477.90
2023-03-26T04:34:13.721Z,99480.59
2023-03-26T04:36:54.963Z,99479.25
2023-03-26T04:39:29.288Z,99481.32
2023-03-26T04:42:20.054Z,99482.98
2023-03-26T04:45:03.194Z,99481.02
2023-03-26T04:47:32.635Z,99481.02
2023-03-26T04:50:01.220Z,99486.90
2023-03-26T04:52:29.433Z,99494.98
2023-03-26T04:55:35.908Z,99504.50
2023-03-26T04:58:10.341Z,99508.70
2023-03-26T05:01:09.957Z,99518.23
2023-03-26T05:03:41.440Z,99517.27
2023-03-26T05:06:13.786Z,99515.70
2023-03-26T05:08:42.334Z,99517.70
2023-03-26T05:11:13.636Z,99518.64
2023-03-26T05:13:43.044Z,99524.00
2023-03-26T05:16:12.987Z,99532.30
2023-03-26T05:18:55.429Z,99532.73
2023-03-26T05:21:24.733Z,99539.33
2023-03-26T05:23:52.717Z,99544.98
2023-03-26T05:26:22.492Z,99548.36
2023-03-26T05:28:52.790Z,99552.25
2023-03-26T05:31:35.563Z,99545.73
2023-03-26T05:34:04.013Z,99544.87
2023-03-26T05:36:36.985Z,99544.30
2023-03-26T05:39:30.063Z,99545.27
2023-03-26T05:42:16.700Z,99545.68
2023-03-26T05:44:58.267Z,99552.48
2023-03-26T05:47:28.703Z,99556.84
2023-03-26T05:49:57.114Z,99557.92
2023-03-26T05:52:26.716Z,99554.73
2023-03-26T05:55:13.429Z,99551.40
2023-03-26T05:58:01.061Z,99548.64
2023-03-26T06:00:48.904Z,99547.27
2023-03-26T06:03:23.425Z,99548.13
2023-03-26T06:06:16.663Z,99549.44
2023-03-26T06:09:01.038Z,99544.85
2023-03-26T06:11:32.100Z,99543.59
2023-03-26T06:14:01.187Z,99541.93
2023-03-26T06:16:29.345Z,99542.59
2023-03-26T06:19:11.948Z,99545.08
2023-03-26T06:21:59.706Z,99549.27
2023-03-26T06:24:52.870Z,99552.81
2023-03-26T06:27:38.347Z,99556.93
2023-03-26T06:30:32.505Z,99563.57
2023-03-26T06:33:18.959Z,99572.81
2023-03-26T06:35:51.823Z,99575.84
2023-03-26T06:38:42.405Z,99566.23
2023-03-26T06:41:16.824Z,99565.46
2023-03-26T06:44:07.645Z,99567.53
2023-03-26T06:47:08.481Z,99565.35
2023-03-26T06:49:51.810Z,99561.33
2023-03-26T06:52:43.025Z,99558.93
2023-03-26T06:55:24.814Z,99565.61
2023-03-26T06:58:06.932Z,99563.77
2023-03-26T07:00:56.165Z,99566.63
2023-03-26T07:03:42.927Z,99572.16
2023-03-26T07:06:32.945Z,99581.46
2023-03-26T07:09:19.560Z,99577.98
2023-03-26T07:12:02.882Z,99578.64
2023-03-26T07:14:59.031Z,99578.45
2023-03-26T07:18:03.718Z,99579.77
2023-03-26T07:20:34.706Z,99575.48
2023-03-26T07:23:07.583Z,99573.92
2023-03-26T07:25:59.344Z,99577.25
2023-03-26T07:29:04.139Z,99582.58
2023-03-26T07:31:49.847Z,99583.88
2023-03-26T07:34:37.277Z,99594.08
2023-03-26T07:37:59.810Z,99591.77
2023-03-26T07:41:08.923Z,99595.53
2023-03-26T07:44:01.571Z,99590.98
2023-03-26T07:46:53.477Z,99579.42
2023-03-26T07:49:45.451Z,99575.38
2023-03-26T07:52:46.129Z,99578.20
2023-03-26T07:55:29.667Z,99578.34
2023-03-26T07:58:48.270Z,99578.35
2023-03-26T08:01:53.150Z,99576.70
2023-03-26T08:04:39.269Z,99577.55
2023-03-26T08:07:45.454Z,99571.42
2023-03-26T08:10:22.824Z,99569.52
2023-03-26T08:13:08.369Z,99566.86
2023-03-26T08:15:56.503Z,99565.47
2023-03-26T08:18:31.747Z,99565.59
2023-03-26T08:21:35.425Z,99567.02
2023-03-26T08:24:27.470Z,99560.71
2023-03-26T08:27:02.925Z,99560.02
2023-03-26T08:29:42.344Z,99559.02
2023-03-26T08:32:17.447Z,99562.73
2023-03-26T08:34:46.892Z,99558.88
2023-03-26T08:37:17.643Z,99560.45
2023-03-26T08:39:47.567Z,99561.17
2023-03-26T08:42:34.412Z,99562.70
2023-03-26T08:45:21.392Z,99564.21
2023-03-26T08:47:49.679Z,99560.08
2023-03-26T08:50:32.749Z,99555.00
2023-03-26T08:53:00.941Z,99556.73
2023-03-26T08:55:45.209Z,99558.05
2023-03-26T08:58:31.990Z,99561.27
2023-03-26T09:01:51.177Z,99564.61
2023-03-26T09:04:23.840Z,99564.50
2023-03-26T09:07:15.881Z,99562.31
2023-03-26T09:10:33.240Z,99557.77
2023-03-26T09:13:10.306Z,99553.59
2023-03-26T09:15:49.766Z,99553.60
2023-03-26T09:18:25.003Z,99556.17
2023-03-26T09:20:56.217Z,99554.42
2023-03-26T09:23:44.554Z,99549.36
2023-03-26T09:26:12.605Z,99546.55
2023-03-26T09:28:57.505Z,99544.62
2023-03-26T09:32:22.850Z,99547.23
2023-03-26T09:35:17.942Z,99543.07
2023-03-26T09:37:56.202Z,99544.77
2023-03-26T09:40:46.088Z,99544.02
2023-03-26T09:43:16.866Z,99543.48
2023-03-26T09:46:08.253Z,99542.91
2023-03-26T09:49:36.932Z,99544.23
2023-03-26T09:52:09.124Z,99542.67
2023-03-26T09:55:06.550Z,99541.45
2023-03-26T09:57:58.501Z,99541.14
2023-03-26T10:00:34.984Z,99536.47
2023-03-26T10:03:18.068Z,99532.65
2023-03-26T10:05:55.397Z,99526.79
2023-03-26T10:08:28.796Z,99522.81
2023-03-26T10:11:11.343Z,99517.23
2023-03-26T10:13:42.512Z,99518.27
2023-03-26T10:16:10.666Z,99514.66
2023-03-26T10:18:41.618Z,99507.84
2023-03-26T10:21:12.612Z,99507.29
2023-03-26T10:24:08.591Z,99507.41
2023-03-26T10:27:33.004Z,99498.46
2023-03-26T10:30:21.653Z,99494.57
2023-03-26T10:33:08.914Z,99488.54
2023-03-26T10:35:39.346Z,99485.40
2023-03-26T10:38:21.180Z,99479.27
2023-03-26T10:41:38.173Z,99481.19
2023-03-26T10:44:51.006Z,99482.06
2023-03-26T10:47:28.181Z,99481.27
2023-03-26T10:50:11.631Z,99476.70
2023-03-26T10:53:02.950Z,99467.92
2023-03-26T10:55:46.963Z,99470.02
2023-03-26T10:58:23.644Z,99470.83
2023-03-26T11:01:00.949Z,99466.92
2023-03-26T11:03:31.992Z,99463.83
2023-03-26T11:06:08.989Z,99462.09
2023-03-26T11:08:46.235Z,99462.15
2023-03-26T11:11:24.784Z,99468.36
2023-03-26T11:14:10.429Z,99460.77
2023-03-26T11:16:51.245Z,99459.66
2023-03-26T11:19:22.290Z,99458.96
2023-03-26T11:21:56.277Z,99452.73
2023-03-26T11:24:27.392Z,99448.73
2023-03-26T11:27:14.854Z,99439.71
2023-03-26T11:29:44.313Z,99435.03
2023-03-26T11:32:21.265Z,99424.99
2023-03-26T11:34:58.422Z,99425.55
2023-03-26T11:37:41.011Z,99426.23
2023-03-26T11:40:14.469Z,99422.21
2023-03-26T11:42:43.579Z,99424.13
2023-03-26T11:45:22.920Z,99420.73
2023-03-26T11:47:52.998Z,99418.91
2023-03-26T11:50:24.134Z,99414.59
2023-03-26T11:53:03.305Z,99407.11
2023-03-26T11:55:31.752Z,99409.77
2023-03-26T11:58:00.736Z,99410.73
2023-03-26T12:00:30.167Z,99407.63
2023-03-26T12:02:59.314Z,99403.91
2023-03-26T12:05:36.704Z,99396.77
2023-03-26T12:08:18.691Z,99393.31
2023-03-26T12:10:57.576Z,99398.74
2023-03-26T12:13:33.577Z,99405.39
2023-03-26T12:16:10.856Z,99422.14
2023-03-26T12:18:41.183Z,99420.81
2023-03-26T12:21:11.231Z,99398.48
2023-03-26T12:23:43.809Z,99399.99
2023-03-26T12:26:30.437Z,99394.43
2023-03-26T12:29:04.970Z,99390.76
2023-03-26T12:31:41.424Z,99383.84
2023-03-26T12:34:17.258Z,99383.16
2023-03-26T12:36:53.015Z,99379.27
2023-03-26T12:40:09.108Z,99371.14
2023-03-26T12:44:47.104Z,99366.97
2023-03-26T12:45:16.252Z,99361.33
2023-03-26T12:47:59.421Z,99361.73
2023-03-26T12:50:51.986Z,99360.55
2023-03-26T12:53:33.388Z,99356.61
2023-03-26T12:56:05.276Z,99349.68
2023-03-26T12:58:51.225Z,99345.20
2023-03-26T13:01:28.514Z,99341.91
2023-03-26T13:04:04.130Z,99338.55
2023-03-26T13:07:02.058Z,99334.48
2023-03-26T13:09:37.838Z,99330.85
2023-03-26T13:12:10.233Z,99329.15
2023-03-26T13:14:44.310Z,99321.13
2023-03-26T13:17:16.000Z,99311.04
2023-03-26T13:19:46.807Z,99306.03
2023-03-26T13:22:27.226Z,99295.23
2023-03-26T13:25:07.559Z,99287.54
2023-03-26T13:27:39.159Z,99281.14
2023-03-26T13:30:10.136Z,99276.70
2023-03-26T13:32:58.786Z,99270.50
2023-03-26T13:35:45.950Z,99268.95
2023-03-26T13:38:20.450Z,99266.02
2023-03-26T13:41:08.579Z,99268.50
2023-03-26T13:43:37.622Z,99270.16
2023-03-26T13:46:21.433Z,99269.02
2023-03-26T13:48:57.308Z,99260.62
2023-03-26T13:51:41.846Z,99250.80
2023-03-26T13:54:24.244Z,99244.75
2023-03-26T13:57:00.123Z,99238.42
2023-03-26T13:59:47.004Z,99237.14
2023-03-26T14:02:31.619Z,99230.86
2023-03-26T14:05:08.136Z,99232.12
2023-03-26T14:07:56.527Z,99230.21
2023-03-26T14:10:31.216Z,99225.48
2023-03-26T14:12:59.033Z,99222.00
2023-03-26T14:15:32.967Z,99218.50
2023-03-26T14:18:19.784Z,99219.58
2023-03-26T14:20:47.701Z,99217.30
2023-03-26T14:23:31.069Z,99211.27
2023-03-26T14:26:15.218Z,99207.14
2023-03-26T14:28:58.556Z,99201.57
2023-03-26T14:31:31.641Z,99200.84
2023-03-26T14:34:16.180Z,99199.51
2023-03-26T14:36:44.157Z,99195.70
2023-03-26T14:39:12.112Z,99194.88
2023-03-26T14:41:47.062Z,99191.45
2023-03-26T14:44:21.027Z,99188.69
2023-03-26T14:47:07.205Z,99186.29
2023-03-26T14:49:46.682Z,99180.61
2023-03-26T14:52:33.505Z,99175.45
2023-03-26T14:55:03.876Z,99172.30
2023-03-26T14:57:54.395Z,99167.35
2023-03-26T15:00:25.351Z,99169.34
2023-03-26T15:03:26.016Z,99169.32
2023-03-26T15:06:03.209Z,99166.14
2023-03-26T15:08:49.744Z,99164.77
2023-03-26T15:11:46.001Z,99163.74
2023-03-26T15:14:40.019Z,99163.94
2023-03-26T15:17:09.597Z,99158.20
2023-03-26T15:19:40.994Z,99153.38
2023-03-26T15:22:12.932Z,99151.79
2023-03-26T15:24:43.881Z,99149.61
2023-03-26T15:27:14.808Z,99146.35
2023-03-26T15:29:42.684Z,99141.24
2023-03-26T15:32:16.605Z,99139.71
2023-03-26T15:34:54.801Z,99138.23
2023-03-26T15:37:37.259Z,99139.79
2023-03-26T15:40:20.641Z,99134.58
2023-03-26T15:42:54.365Z,99137.45
2023-03-26T15:45:31.726Z,99132.58
2023-03-26T15:48:01.522Z,99131.04
2023-03-26T15:50:29.508Z,99131.98
2023-03-26T15:52:57.394Z,99132.11
2023-03-26T15:55:31.403Z,99127.37
2023-03-26T15:58:07.854Z,99127.24
2023-03-26T16:00:38.377Z,99127.20
2023-03-26T16:03:09.629Z,99131.66
2023-03-26T16:05:40.635Z,99134.69
2023-03-26T16:08:14.917Z,99132.87
2023-03-26T16:11:07.869Z,99130.83
2023-03-26T16:13:38.075Z,99131.45
2023-03-26T16:16:15.328Z,99129.34
2023-03-26T16:18:56.531Z,99128.29
2023-03-26T16:21:30.603Z,99129.23
2023-03-26T16:24:03.170Z,99126.50
2023-03-26T16:26:47.577Z,99125.52
2023-03-26T16:29:15.710Z,99120.86
2023-03-26T16:32:02.455Z,99121.77
2023-03-26T16:34:43.694Z,99120.05
2023-03-26T16:37:30.674Z,99116.63
2023-03-26T16:40:18.945Z,99116.42
2023-03-26T16:42:47.053Z,99112.07
2023-03-26T16:45:25.949Z,99108.95
2023-03-26T16:48:05.304Z,99108.64
2023-03-26T16:50:33.348Z,99102.23
2023-03-26T16:53:22.211Z,99099.31
2023-03-26T16:56:02.702Z,99098.76
2023-03-26T16:58:38.290Z,99095.92
2023-03-26T17:01:08.506Z,99091.61
2023-03-26T17:03:39.225Z,99090.44
2023-03-26T17:06:23.934Z,99091.16
2023-03-26T17:08:58.909Z,99083.09
2023-03-26T17:11:29.849Z,99082.95
2023-03-26T17:14:03.737Z,99081.23
2023-03-26T17:16:34.858Z,99081.39
2023-03-26T17:19:09.156Z,99082.76
2023-03-26T17:21:52.039Z,99087.27
2023-03-26T17:24:20.076Z,99090.73
2023-03-26T17:27:22.066Z,99083.36
2023-03-26T17:30:11.231Z,99082.37
2023-03-26T17:33:13.723Z,99083.93
2023-03-26T17:35:41.925Z,99083.27
2023-03-26T17:38:16.168Z,99082.70
2023-03-26T17:40:48.976Z,99085.27
2023-03-26T17:43:36.312Z,99082.88
2023-03-26T17:46:07.008Z,99078.80
2023-03-26T17:48:36.954Z,99076.14
2023-03-26T17:51:25.260Z,99071.59
2023-03-26T17:53:53.449Z,99067.65
2023-03-26T17:56:25.221Z,99063.81
2023-03-26T17:58:58.893Z,99062.59
2023-03-26T18:01:42.276Z,99063.96
2023-03-26T18:04:19.813Z,99064.45
2023-03-26T18:06:47.841Z,99060.21
2023-03-26T18:09:16.291Z,99057.77
2023-03-26T18:11:51.023Z,99060.48
2023-03-26T18:14:31.247Z,99059.26
2023-03-26T18:17:00.663Z,99058.23
2023-03-26T18:19:29.535Z,99057.77
2023-03-26T18:22:04.414Z,99057.80
2023-03-26T18:24:36.557Z,99054.10
2023-03-26T18:27:12.884Z,99053.77
2023-03-26T18:29:45.350Z,99054.51
2023-03-26T18:32:13.402Z,99052.54
2023-03-26T18:34:46.679Z,99049.70
2023-03-26T18:37:19.617Z,99044.17
2023-03-26T18:39:57.023Z,99043.21
2023-03-26T18:42:26.238Z,99042.41
2023-03-26T18:44:59.905Z,99044.87
2023-03-26T18:47:31.557Z,99038.70
2023-03-26T18:50:00.014Z,99038.32
2023-03-26T18:52:29.530Z,99032.86
2023-03-26T18:54:59.205Z,99030.42
2023-03-26T18:57:28.705Z,99028.20
2023-03-26T19:00:08.988Z,99020.22
2023-03-26T19:02:38.400Z,99010.44
2023-03-26T19:05:07.567Z,99013.14
2023-03-26T19:07:36.043Z,99010.45
2023-03-26T19:10:06.801Z,99003.18
2023-03-26T19:12:38.673Z,99001.38
2023-03-26T19:15:10.125Z,98997.50
2023-03-26T19:17:44.900Z,98995.52
2023-03-26T19:20:16.796Z,98994.11
2023-03-26T19:22:46.121Z,98988.34
2023-03-26T19:25:22.296Z,98988.90
2023-03-26T19:27:51.733Z,98984.23
2023-03-26T19:30:29.420Z,98983.27
2023-03-26T19:33:12.238Z,98980.20
2023-03-26T19:35:42.415Z,98978.46
2023-03-26T19:38:29.177Z,98977.60
2023-03-26T19:41:06.498Z,98978.30
2023-03-26T19:43:34.555Z,98977.98
2023-03-26T19:46:02.539Z,98970.55
2023-03-26T19:48:46.069Z,98970.80
2023-03-26T19:51:21.333Z,98975.21
2023-03-26T19:53:54.264Z,98975.42
2023-03-26T19:56:23.042Z,98973.20
2023-03-26T19:58:53.812Z,98971.70
2023-03-26T20:01:23.921Z,98968.08
2023-03-26T20:03:54.810Z,98964.75
2023-03-26T20:09:12.638Z,98952.42
2023-03-26T20:11:42.230Z,98949.73
2023-03-26T20:14:14.895Z,98947.20
2023-03-26T20:16:45.225Z,98946.17
2023-03-26T20:19:19.811Z,98947.02
2023-03-26T20:21:52.632Z,98942.35
2023-03-26T20:24:21.619Z,98937.23
2023-03-26T20:26:52.411Z,98937.14
2023-03-26T20:29:23.678Z,98940.91
2023-03-26T20:31:56.219Z,98940.89
2023-03-26T20:34:24.337Z,98935.27
2023-03-26T20:37:01.134Z,98933.45
2023-03-26T20:39:29.535Z,98930.81
2023-03-26T20:41:57.823Z,98927.64
2023-03-26T20:44:27.378Z,98922.89
2023-03-26T20:46:58.993Z,98919.17
2023-03-26T20:49:29.294Z,98912.08
2023-03-26T20:51:57.964Z,98900.73
2023-03-26T20:54:26.334Z,98894.34
2023-03-26T20:56:54.524Z,98890.16
2023-03-26T20:59:26.566Z,98883.61
2023-03-26T21:01:56.844Z,98878.48
2023-03-26T21:04:26.378Z,98876.92
2023-03-26T21:07:00.401Z,98873.37
2023-03-26T21:09:35.548Z,98872.45
2023-03-26T21:12:08.317Z,98865.52
2023-03-26T21:14:44.189Z,98862.00
2023-03-26T21:17:16.667Z,98858.79
2023-03-26T21:19:45.492Z,98855.73
2023-03-26T21:22:25.902Z,98850.90
2023-03-26T21:24:54.192Z,98843.87
2023-03-26T21:27:28.114Z,98836.59
2023-03-26T21:29:57.806Z,98824.81
2023-03-26T21:32:26.266Z,98818.48
2023-03-26T21:37:25.727Z,98813.91
2023-03-26T21:39:53.867Z,98810.83
2023-03-26T21:42:21.883Z,98809.63
2023-03-26T21:44:49.943Z,98808.27
2023-03-26T21:47:18.056Z,98802.91
2023-03-26T21:49:46.093Z,98805.20
2023-03-26T21:52:17.038Z,98800.47
2023-03-26T21:54:45.208Z,98790.61
2023-03-26T21:57:19.315Z,98787.62
2023-03-26T21:59:47.182Z,98780.61
2023-03-26T22:02:26.146Z,98776.75
2023-03-26T22:04:56.634Z,98771.25
2023-03-26T22:07:33.231Z,98765.59
2023-03-26T22:10:02.247Z,98763.94
2023-03-26T22:12:30.273Z,98757.23
2023-03-26T22:14:58.139Z,98756.36
2023-03-26T22:17:26.050Z,98758.89
2023-03-26T22:19:56.074Z,98754.96
2023-03-26T22:22:26.385Z,98753.55
2023-03-26T22:24:54.301Z,98748.20
2023-03-26T22:27:22.144Z,98741.65
2023-03-26T22:29:50.193Z,98737.15
2023-03-26T22:32:18.892Z,98732.41
2023-03-26T22:34:46.930Z,98719.58
2023-03-26T22:37:16.196Z,98712.89
2023-03-26T22:39:44.090Z,98713.90
2023-03-26T22:42:12.075Z,98712.57
2023-03-26T22:44:40.111Z,98711.09
2023-03-26T22:47:09.706Z,98704.05
2023-03-26T22:49:37.584Z,98701.67
2023-03-26T22:52:08.656Z,98701.44
2023-03-26T22:54:38.739Z,98697.95
2023-03-26T22:57:06.814Z,98695.91
2023-03-26T22:59:34.727Z,98693.85
2023-03-26T23:02:02.749Z,98691.48
2023-03-26T23:04:32.226Z,98691.08
2023-03-26T23:07:04.287Z,98687.19
2023-03-26T23:09:33.380Z,98685.30
2023-03-26T23:12:01.378Z,98679.76
2023-03-26T23:14:29.459Z,98678.88
2023-03-26T23:16:57.383Z,98672.64
2023-03-26T23:19:25.594Z,98662.70
2023-03-26T23:21:53.640Z,98651.27
2023-03-26T23:24:21.508Z,98642.60
2023-03-26T23:26:51.110Z,98634.57
2023-03-26T23:29:22.995Z,98632.66
2023-03-26T23:31:53.708Z,98628.27
2023-03-26T23:34:23.553Z,98617.41
2023-03-26T23:36:52.955Z,98609.60
2023-03-26T23:39:20.879Z,98601.88
2023-03-26T23:41:48.938Z,98595.42
2023-03-26T23:44:17.160Z,98591.33
2023-03-26T23:46:45.009Z,98594.03
2023-03-26T23:49:14.925Z,98593.56
2023-03-26T23:51:42.842Z,98593.48
2023-03-26T23:54:11.801Z,98587.58
2023-03-26T23:56:39.720Z,98589.21
2023-03-26T23:59:08.488Z,98594.73
